Harbinger, NC (27941)

12:35 AM EST on March 04, 2015 (GMT -0500)
OBXJIM's HOME | Change Station
CLOSE
Current Station
Personal Weather Station
Location: Point Harbor, NC
Elevation: 9 ft
Nearby Weather Stations

Elev 9 ft 36.09 °N, 75.80 °W | Updated 16 seconds ago

Overcast
Overcast
58.5 °F
Feels Like 58.5 °F
N
0.0
Wind Variable Wind from NW
Gusts 0.0 mph

Today
High -- | Low -- °F
--% Chance of Precip.
Yesterday
High -- | Low -- °F
Precip. -- in
6:29 AM 6:00 PM
Waxing Gibbous, 98% visible
Pressure 30.04 in
Visibility 5.0 miles
Clouds Scattered Clouds 100 ft
Mostly Cloudy 600 ft
Overcast 1900 ft
Dew Point 53 °F
Humidity 82%
Rainfall 0.00 in
Snow Depth Not available.
UV 0 out of 12
Pollen 8.10 out of 12
Air Quality Not available.
Flu Activity Not available.
METAR KFFA 040515Z AUTO 22007KT 180V240 5SM BR SCT001 BKN006 OVC019 14/14 A3004 RMK AO2 T01380138

More Conditions Fewer Conditions

Pressure 30.04 in
Visibility 5.0 miles
Clouds Scattered Clouds 100 ft
Mostly Cloudy 600 ft
Overcast 1900 ft
Dew Point 53 °F
Humidity 82%
Rainfall 0.00 in
Snow Depth Not available.
UV 0 out of 12
Pollen 8.10 out of 12
Air Quality Not available.
Flu Activity Not available.
METAR KFFA 040515Z AUTO 22007KT 180V240 5SM BR SCT001 BKN006 OVC019 14/14 A3004 RMK AO2 T01380138

More Conditions Fewer Conditions

10-Day Weather Forecast

Almanac

Astronomy

Mar. 04, 2015 Rise Set
Actual Time
Civil Twilight
Nautical Twilight
Astronomical Twilight
Moon
Length of Visible Light
Length of Day
Tomorrow will be .
, % of the Moon is Illuminated

Today's Extremes

State Highs State Lows

Community

WunderPhotos

Upload Photos

1,802,400 photos uploaded!

WunderBlogs® & News

Nearby

Air Quality

  Air Quality AQ Index Pollutant
Not available.

Snow Depth

Station Depth Elevation

Earthquake Activity

City Distance Mag. Time & Date
Minimum magnitude displayed is 2.5.

Coastal Water Temperatures

Place Temperature

Nearby Weather Stations